createdAt,value
2023-06-19T00:02:23.683Z,25.41
2023-06-19T00:04:52.753Z,25.41
2023-06-19T00:07:23.046Z,25.40
2023-06-19T00:09:50.768Z,25.39
2023-06-19T00:12:18.634Z,25.34
2023-06-19T00:14:47.058Z,25.29
2023-06-19T00:17:17.736Z,25.30
2023-06-19T00:19:45.676Z,25.27
2023-06-19T00:22:14.817Z,25.30
2023-06-19T00:24:42.643Z,25.32
2023-06-19T00:27:10.365Z,25.35
2023-06-19T00:29:38.089Z,25.37
2023-06-19T00:32:06.505Z,25.34
2023-06-19T00:34:34.227Z,25.31
2023-06-19T00:37:02.001Z,25.32
2023-06-19T00:39:31.103Z,25.32
2023-06-19T00:41:58.798Z,25.34
2023-06-19T00:44:26.494Z,25.37
2023-06-19T00:47:00.598Z,25.36
2023-06-19T00:49:30.274Z,25.35
2023-06-19T00:51:57.941Z,25.33
2023-06-19T00:54:25.753Z,25.32
2023-06-19T00:56:55.079Z,25.30
2023-06-19T00:59:23.549Z,25.27
2023-06-19T01:01:51.561Z,25.26
2023-06-19T01:04:19.383Z,25.20
2023-06-19T01:06:53.570Z,25.17
2023-06-19T01:09:22.610Z,25.14
2023-06-19T01:11:54.591Z,25.10
2023-06-19T01:14:24.548Z,25.08
2023-06-19T01:16:53.158Z,25.05
2023-06-19T01:19:22.508Z,25.00
2023-06-19T01:21:51.317Z,25.02
2023-06-19T01:24:20.548Z,25.03
2023-06-19T01:26:48.520Z,25.05
2023-06-19T01:29:19.313Z,25.06
2023-06-19T01:31:51.283Z,25.09
2023-06-19T01:34:21.058Z,25.09
2023-06-19T01:36:50.303Z,25.11
2023-06-19T01:39:18.243Z,25.03
2023-06-19T01:41:48.265Z,25.07
2023-06-19T01:44:16.087Z,25.07
2023-06-19T01:46:43.934Z,25.05
2023-06-19T01:49:11.687Z,25.06
2023-06-19T01:51:39.292Z,25.03
2023-06-19T01:54:08.386Z,25.04
2023-06-19T01:56:36.106Z,25.01
2023-06-19T01:59:05.293Z,25.01
2023-06-19T02:01:33.001Z,25.01
2023-06-19T02:04:00.883Z,25.02
2023-06-19T02:06:28.782Z,25.01
2023-06-19T02:08:56.518Z,25.03
2023-06-19T02:11:24.275Z,25.04
2023-06-19T02:13:51.963Z,25.04
2023-06-19T02:16:21.088Z,25.02
2023-06-19T02:18:48.859Z,25.04
2023-06-19T02:21:16.590Z,25.06
2023-06-19T02:23:44.220Z,25.06
2023-06-19T02:26:12.735Z,25.06
2023-06-19T02:28:40.792Z,25.05
2023-06-19T02:31:08.510Z,25.05
2023-06-19T02:33:37.746Z,25.01
2023-06-19T02:36:06.164Z,24.95
2023-06-19T02:38:33.864Z,24.94
2023-06-19T02:41:02.510Z,24.91
2023-06-19T02:43:30.221Z,24.88
2023-06-19T02:45:57.995Z,24.85
2023-06-19T02:48:25.798Z,24.82
2023-06-19T02:50:54.928Z,24.81
2023-06-19T02:53:22.656Z,24.77
2023-06-19T02:55:50.385Z,24.76
2023-06-19T02:58:18.103Z,24.76
2023-06-19T03:00:46.202Z,24.75
2023-06-19T03:03:14.166Z,24.73
2023-06-19T03:05:41.983Z,24.73
2023-06-19T03:08:11.935Z,24.71
2023-06-19T03:10:39.578Z,24.66
2023-06-19T03:13:07.315Z,24.63
2023-06-19T03:15:35.044Z,24.62
2023-06-19T03:18:05.586Z,24.56
2023-06-19T03:20:33.760Z,24.56
2023-06-19T03:23:01.487Z,24.57
2023-06-19T03:25:35.843Z,24.53
2023-06-19T03:28:04.019Z,24.51
2023-06-19T03:30:32.171Z,24.49
2023-06-19T03:32:59.893Z,24.46
2023-06-19T03:35:27.607Z,24.42
2023-06-19T03:37:55.402Z,24.40
2023-06-19T03:40:23.922Z,24.35
2023-06-19T03:42:53.337Z,24.32
2023-06-19T03:45:21.083Z,24.29
2023-06-19T03:47:48.942Z,24.26
2023-06-19T03:50:31.392Z,24.22
2023-06-19T03:52:59.410Z,24.16
2023-06-19T03:55:27.242Z,24.20
2023-06-19T03:57:56.331Z,24.20
2023-06-19T04:00:24.938Z,24.14
2023-06-19T04:02:52.962Z,24.14
2023-06-19T04:05:21.146Z,24.09
2023-06-19T04:07:49.534Z,24.05
2023-06-19T04:10:17.267Z,24.04
2023-06-19T04:12:46.454Z,24.01
2023-06-19T04:15:15.765Z,23.97
2023-06-19T04:17:43.482Z,23.87
2023-06-19T04:20:21.000Z,23.79
2023-06-19T04:22:48.801Z,23.76
2023-06-19T04:25:16.640Z,23.70
2023-06-19T04:27:45.899Z,23.70
2023-06-19T04:30:15.387Z,23.69
2023-06-19T04:32:43.197Z,23.64
2023-06-19T04:35:11.549Z,23.59
2023-06-19T04:37:39.402Z,23.63
2023-06-19T04:40:09.354Z,23.58
2023-06-19T04:42:39.983Z,23.53
2023-06-19T04:45:09.020Z,23.45
2023-06-19T04:47:51.619Z,23.42
2023-06-19T04:50:21.539Z,23.41
2023-06-19T04:52:51.669Z,23.41
2023-06-19T04:55:20.248Z,23.45
2023-06-19T04:57:47.949Z,23.42
2023-06-19T05:00:20.130Z,23.37
2023-06-19T05:02:49.806Z,23.41
2023-06-19T05:05:18.459Z,23.40
2023-06-19T05:07:47.672Z,23.35
2023-06-19T05:10:15.454Z,23.35
2023-06-19T05:12:43.189Z,23.34
2023-06-19T05:15:12.179Z,23.34
2023-06-19T05:17:40.431Z,23.37
2023-06-19T05:20:12.909Z,23.41
2023-06-19T05:22:40.721Z,23.43
2023-06-19T05:25:09.484Z,23.48
2023-06-19T05:27:37.253Z,23.51
2023-06-19T05:30:06.128Z,23.49
2023-06-19T05:32:33.896Z,23.49
2023-06-19T05:35:02.348Z,23.46
2023-06-19T05:37:31.546Z,23.48
2023-06-19T05:39:59.306Z,23.48
2023-06-19T05:42:26.930Z,23.50
2023-06-19T05:44:54.738Z,23.45
2023-06-19T05:47:24.620Z,23.45
2023-06-19T05:49:52.326Z,23.49
2023-06-19T05:52:20.194Z,23.48
2023-06-19T05:54:49.933Z,23.48
2023-06-19T05:57:21.857Z,23.45
2023-06-19T05:59:49.711Z,23.47
2023-06-19T06:02:17.556Z,23.47
2023-06-19T06:04:45.430Z,23.51
2023-06-19T06:07:13.416Z,23.50
2023-06-19T06:09:41.302Z,23.47
2023-06-19T06:12:10.986Z,23.49
2023-06-19T06:14:38.653Z,23.52
2023-06-19T06:17:07.304Z,23.53
2023-06-19T06:19:35.079Z,23.56
2023-06-19T06:22:02.886Z,23.56
2023-06-19T06:24:30.666Z,23.53
2023-06-19T06:27:00.092Z,23.52
2023-06-19T06:29:29.297Z,23.48
2023-06-19T06:32:05.203Z,23.49
2023-06-19T06:34:33.473Z,23.54
2023-06-19T06:37:06.501Z,23.56
2023-06-19T06:39:34.952Z,23.56
2023-06-19T06:42:03.181Z,23.50
2023-06-19T06:44:32.316Z,23.50
2023-06-19T06:47:00.076Z,23.49
2023-06-19T06:49:27.806Z,23.46
2023-06-19T06:51:57.999Z,23.46
2023-06-19T06:54:26.051Z,23.48
2023-06-19T06:56:57.427Z,23.51
2023-06-19T06:59:25.459Z,23.51
2023-06-19T07:01:54.809Z,23.49
2023-06-19T07:04:22.565Z,23.51
2023-06-19T07:06:50.420Z,23.41
2023-06-19T07:09:18.216Z,23.46
2023-06-19T07:11:45.990Z,23.40
2023-06-19T07:14:13.728Z,23.37
2023-06-19T07:16:41.511Z,23.32
2023-06-19T07:19:10.569Z,23.33
2023-06-19T07:21:39.229Z,23.36
2023-06-19T07:24:07.281Z,23.38
2023-06-19T07:26:35.026Z,23.38
2023-06-19T07:29:02.851Z,23.36
2023-06-19T07:31:30.628Z,23.36
2023-06-19T07:33:58.354Z,23.34
2023-06-19T07:36:27.634Z,23.32
2023-06-19T07:38:55.429Z,23.35
2023-06-19T07:41:23.172Z,23.30
2023-06-19T07:43:51.030Z,23.33
2023-06-19T07:46:18.922Z,23.42
2023-06-19T07:48:46.576Z,23.45
2023-06-19T07:51:14.411Z,23.48
2023-06-19T07:53:44.481Z,23.46
2023-06-19T07:56:12.253Z,23.47
2023-06-19T07:58:40.000Z,23.49
2023-06-19T08:01:07.678Z,23.45
2023-06-19T08:04:10.366Z,23.49
2023-06-19T08:06:38.069Z,23.45
2023-06-19T08:09:06.077Z,23.45
2023-06-19T08:11:34.037Z,23.47
2023-06-19T08:14:01.764Z,23.43
2023-06-19T08:16:29.608Z,23.41
2023-06-19T08:18:57.350Z,23.36
2023-06-19T08:21:26.671Z,23.35
2023-06-19T08:23:54.369Z,23.34
2023-06-19T08:26:22.328Z,23.41
2023-06-19T08:28:50.369Z,23.48
2023-06-19T08:31:18.345Z,23.52
2023-06-19T08:33:46.155Z,23.53
2023-06-19T08:36:14.022Z,23.52
2023-06-19T08:38:43.188Z,23.48
2023-06-19T08:41:10.909Z,23.46
2023-06-19T08:43:38.654Z,23.44
2023-06-19T08:46:11.994Z,23.44
2023-06-19T08:48:40.294Z,23.48
2023-06-19T08:51:07.998Z,23.45
2023-06-19T08:53:37.249Z,23.49
2023-06-19T08:56:06.641Z,23.46
2023-06-19T08:58:35.000Z,23.40
2023-06-19T09:01:02.739Z,23.45
2023-06-19T09:03:30.497Z,23.45
2023-06-19T09:05:58.345Z,23.48
2023-06-19T09:08:26.037Z,23.51
2023-06-19T09:10:58.517Z,23.55
2023-06-19T09:13:29.938Z,23.56
2023-06-19T09:16:03.057Z,23.64
2023-06-19T09:18:31.949Z,23.67
2023-06-19T09:21:00.073Z,23.67
2023-06-19T09:23:27.846Z,23.71
2023-06-19T09:25:56.991Z,23.68
2023-06-19T09:28:25.549Z,23.67
2023-06-19T09:30:55.796Z,23.75
2023-06-19T09:33:23.648Z,23.79
2023-06-19T09:35:52.135Z,23.81
2023-06-19T09:38:20.287Z,23.83
2023-06-19T09:40:49.407Z,23.92
2023-06-19T09:43:21.864Z,24.05
2023-06-19T09:45:51.164Z,24.09
2023-06-19T09:48:22.331Z,24.16
2023-06-19T09:50:52.699Z,24.16
2023-06-19T09:53:21.898Z,24.19
2023-06-19T09:55:51.254Z,24.24
2023-06-19T09:58:20.168Z,24.28
2023-06-19T10:00:50.806Z,24.33
2023-06-19T10:03:20.552Z,24.37
2023-06-19T10:05:48.546Z,24.37
2023-06-19T10:08:19.198Z,24.36
2023-06-19T10:10:50.750Z,24.31
2023-06-19T10:13:18.949Z,24.35
2023-06-19T10:17:22.448Z,24.41
2023-06-19T10:19:54.237Z,24.37
2023-06-19T10:22:22.963Z,24.36
2023-06-19T10:24:53.462Z,24.40
2023-06-19T10:27:23.605Z,24.53
2023-06-19T10:29:59.752Z,24.60
2023-06-19T10:32:44.227Z,24.60
2023-06-19T10:35:13.640Z,24.67
2023-06-19T11:46:50.546Z,23.27
2023-06-19T11:49:19.906Z,23.70
2023-06-19T11:51:48.068Z,23.96
2023-06-19T11:54:16.802Z,24.21
2023-06-19T11:57:56.965Z,24.48
2023-06-19T12:00:24.977Z,24.62
2023-06-19T12:02:54.641Z,24.74
2023-06-19T12:05:22.509Z,24.83
2023-06-19T12:07:50.298Z,24.89
2023-06-19T12:10:18.401Z,25.00
2023-06-19T12:12:46.064Z,25.11
2023-06-19T12:15:15.443Z,25.17
2023-06-19T12:17:43.232Z,25.26
2023-06-19T12:20:12.207Z,25.35
2023-06-19T12:22:39.890Z,25.36
2023-06-19T12:25:08.015Z,25.34
2023-06-19T12:27:35.781Z,25.33
2023-06-19T12:30:03.612Z,25.38
2023-06-19T12:32:32.742Z,25.39
2023-06-19T12:35:00.479Z,25.43
2023-06-19T12:37:29.149Z,25.49
2023-06-19T12:39:57.222Z,25.63
2023-06-19T12:42:24.997Z,25.74
2023-06-19T12:44:52.718Z,25.84
2023-06-19T12:47:21.894Z,25.91
2023-06-19T12:49:51.114Z,26.00
2023-06-19T12:52:19.034Z,26.08
2023-06-19T12:54:46.768Z,26.17
2023-06-19T12:57:14.490Z,26.29
2023-06-19T12:59:42.842Z,26.41
2023-06-19T13:02:12.657Z,26.39
2023-06-19T13:04:41.981Z,26.42
2023-06-19T13:07:11.251Z,26.43
2023-06-19T13:09:38.998Z,26.40
2023-06-19T13:12:07.676Z,26.43
2023-06-19T13:14:35.524Z,26.48
2023-06-19T13:17:03.438Z,26.52
2023-06-19T13:19:31.187Z,26.60
2023-06-19T13:21:58.918Z,26.68
2023-06-19T13:24:28.596Z,26.75
2023-06-19T13:26:56.864Z,26.89
2023-06-19T13:29:24.678Z,26.97
2023-06-19T13:31:52.422Z,26.92
2023-06-19T13:34:20.168Z,26.81
2023-06-19T13:36:48.599Z,26.73
2023-06-19T13:39:16.589Z,26.69
2023-06-19T13:41:45.751Z,26.64
2023-06-19T13:44:13.666Z,26.68
2023-06-19T13:46:41.595Z,26.76
2023-06-19T13:49:09.355Z,26.88
2023-06-19T13:51:37.266Z,26.98
2023-06-19T13:54:05.469Z,27.04
2023-06-19T13:56:33.296Z,27.07
2023-06-19T13:59:04.176Z,27.09
2023-06-19T14:01:31.963Z,27.01
2023-06-19T14:03:59.816Z,26.96
2023-06-19T14:06:27.793Z,26.97
2023-06-19T14:08:59.130Z,27.06
2023-06-19T14:11:27.020Z,27.12
2023-06-19T14:13:54.798Z,27.24
2023-06-19T14:16:24.096Z,27.26
2023-06-19T14:18:51.791Z,27.36
2023-06-19T14:21:19.940Z,27.38
2023-06-19T14:23:47.620Z,27.38
2023-06-19T14:26:15.410Z,27.42
2023-06-19T14:28:43.280Z,27.45
2023-06-19T14:31:11.002Z,27.52
2023-06-19T14:33:40.101Z,27.50
2023-06-19T14:36:07.901Z,27.58
2023-06-19T14:38:35.742Z,27.56
2023-06-19T14:41:03.539Z,27.49
2023-06-19T14:43:33.821Z,27.46
2023-06-19T14:46:02.038Z,27.44
2023-06-19T14:48:31.377Z,27.41
2023-06-19T14:51:00.886Z,27.36
2023-06-19T14:53:28.642Z,27.32
2023-06-19T14:55:56.823Z,27.34
2023-06-19T14:58:28.058Z,27.44
2023-06-19T15:01:01.709Z,27.51
2023-06-19T15:03:29.566Z,27.55
2023-06-19T15:05:57.389Z,27.69
2023-06-19T15:08:26.590Z,27.72
2023-06-19T15:10:54.605Z,27.76
2023-06-19T15:13:22.429Z,27.78
2023-06-19T15:15:51.876Z,27.76
2023-06-19T15:18:19.860Z,27.69
2023-06-19T15:20:47.822Z,27.65
2023-06-19T15:23:15.621Z,27.66
2023-06-19T15:25:44.815Z,27.62
2023-06-19T15:28:12.860Z,27.58
2023-06-19T15:30:40.641Z,27.63
2023-06-19T15:33:08.518Z,27.68
2023-06-19T15:35:36.277Z,27.78
2023-06-19T15:38:04.155Z,27.85
2023-06-19T15:40:32.597Z,27.90
2023-06-19T15:43:01.734Z,27.97
2023-06-19T15:45:29.442Z,28.04
2023-06-19T15:47:57.201Z,28.04
2023-06-19T15:50:25.242Z,27.96
2023-06-19T15:52:53.273Z,27.93
2023-06-19T15:55:21.772Z,27.99
2023-06-19T15:57:49.531Z,27.96
2023-06-19T16:00:19.513Z,27.87
2023-06-19T16:02:49.107Z,27.76
2023-06-19T16:05:17.837Z,27.75
2023-06-19T16:07:46.045Z,27.78
2023-06-19T16:10:13.793Z,27.84
2023-06-19T16:12:42.079Z,27.96
2023-06-19T16:15:13.857Z,28.08
2023-06-19T16:17:43.168Z,28.20
2023-06-19T16:20:12.519Z,28.22
2023-06-19T16:22:40.219Z,28.22
2023-06-19T16:25:10.115Z,28.25
2023-06-19T16:27:37.852Z,28.29
2023-06-19T16:30:06.387Z,28.32
2023-06-19T16:32:34.252Z,28.29
2023-06-19T16:35:03.551Z,28.23
2023-06-19T16:37:31.390Z,28.21
2023-06-19T16:39:59.187Z,28.17
2023-06-19T16:42:27.287Z,28.15
2023-06-19T16:44:55.465Z,28.10
2023-06-19T16:47:23.368Z,28.01
2023-06-19T16:49:51.144Z,27.99
2023-06-19T16:52:20.239Z,27.96
2023-06-19T16:54:47.963Z,27.96
2023-06-19T16:57:15.698Z,27.99
2023-06-19T16:59:43.537Z,28.00
2023-06-19T17:02:11.376Z,27.99
2023-06-19T17:04:39.940Z,27.97
2023-06-19T17:07:07.894Z,27.92
2023-06-19T17:09:36.968Z,27.93
2023-06-19T17:12:05.358Z,27.89
2023-06-19T17:14:33.417Z,27.86
2023-06-19T17:17:01.329Z,27.86
2023-06-19T17:19:29.371Z,27.79
2023-06-19T17:21:57.151Z,27.77
2023-06-19T17:24:24.972Z,27.76
2023-06-19T17:26:58.083Z,27.74
2023-06-19T17:29:26.552Z,27.69
2023-06-19T17:31:54.618Z,27.68
2023-06-19T17:34:22.500Z,27.66
2023-06-19T17:36:50.289Z,27.59
2023-06-19T17:39:18.041Z,27.57
2023-06-19T17:41:45.760Z,27.51
2023-06-19T17:44:14.948Z,27.47
2023-06-19T17:46:42.673Z,27.41
2023-06-19T17:49:10.506Z,27.40
2023-06-19T17:51:38.263Z,27.43
2023-06-19T17:54:06.175Z,27.43
2023-06-19T17:56:34.048Z,27.41
2023-06-19T17:59:01.784Z,27.50
2023-06-19T18:01:30.916Z,27.52
2023-06-19T18:03:58.783Z,27.53
2023-06-19T18:06:26.549Z,27.56
2023-06-19T18:08:54.292Z,27.61
2023-06-19T18:11:21.962Z,27.64
2023-06-19T18:13:49.699Z,27.64
2023-06-19T18:16:17.564Z,27.63
2023-06-19T18:18:46.720Z,27.62
2023-06-19T18:21:14.384Z,27.64
2023-06-19T18:23:42.313Z,27.63
2023-06-19T18:26:09.966Z,27.63
2023-06-19T18:28:37.862Z,27.59
2023-06-19T18:31:05.743Z,27.58
2023-06-19T18:33:33.480Z,27.57
2023-06-19T18:36:03.105Z,27.55
2023-06-19T18:38:30.882Z,27.51
2023-06-19T18:43:26.796Z,27.49
2023-06-19T18:45:54.631Z,27.47
2023-06-19T18:50:41.731Z,27.41
2023-06-19T18:53:09.427Z,27.33
2023-06-19T18:55:39.023Z,27.35
2023-06-19T18:58:08.170Z,27.28
2023-06-19T19:00:36.356Z,27.25
2023-06-19T19:03:04.478Z,27.19
2023-06-19T19:05:33.792Z,27.14
2023-06-19T19:08:02.999Z,27.11
2023-06-19T19:10:30.703Z,27.08
2023-06-19T19:12:58.432Z,27.04
2023-06-19T19:15:26.217Z,27.01
2023-06-19T19:17:53.925Z,26.98
2023-06-19T19:20:22.292Z,26.95
2023-06-19T19:22:50.140Z,26.90
2023-06-19T19:25:19.465Z,26.90
2023-06-19T19:27:47.206Z,26.86
2023-06-19T19:30:15.094Z,26.83
2023-06-19T19:32:42.879Z,26.80
2023-06-19T19:35:11.437Z,26.73
2023-06-19T19:37:39.291Z,26.74
2023-06-19T19:40:08.309Z,26.69
2023-06-19T19:42:37.866Z,26.65
2023-06-19T19:45:06.827Z,26.63
2023-06-19T19:47:34.865Z,26.58
2023-06-19T19:50:02.610Z,26.54
2023-06-19T19:52:31.465Z,26.49
2023-06-19T19:54:59.246Z,26.39
2023-06-19T19:57:27.012Z,26.40
2023-06-19T19:59:56.223Z,26.37
2023-06-19T20:02:24.028Z,26.32
2023-06-19T20:04:53.219Z,26.24
2023-06-19T20:07:20.941Z,26.19
2023-06-19T20:09:48.604Z,26.13
2023-06-19T20:12:22.087Z,26.06
2023-06-19T20:14:50.369Z,26.05
2023-06-19T20:17:19.557Z,25.97
2023-06-19T20:19:47.316Z,25.94
2023-06-19T20:22:15.014Z,25.91
2023-06-19T20:24:43.032Z,25.87
2023-06-19T20:27:12.000Z,25.81
2023-06-19T20:29:39.861Z,25.77
2023-06-19T20:32:08.663Z,25.73
2023-06-19T20:34:37.766Z,25.68
2023-06-19T20:37:05.944Z,25.68
2023-06-19T20:39:33.876Z,25.65
2023-06-19T20:42:03.642Z,25.59
2023-06-19T20:44:31.484Z,25.57
2023-06-19T20:47:01.375Z,25.55
2023-06-19T20:49:29.478Z,25.53
2023-06-19T20:51:58.628Z,25.50
2023-06-19T20:54:26.423Z,25.47
2023-06-19T20:56:54.110Z,25.45
2023-06-19T20:59:21.983Z,25.40
2023-06-19T21:01:49.705Z,25.37
2023-06-19T21:04:17.688Z,25.35
2023-06-19T21:06:45.990Z,25.32
2023-06-19T21:09:16.944Z,25.27
2023-06-19T21:11:44.740Z,25.25
2023-06-19T21:14:12.629Z,25.21
2023-06-19T21:16:40.519Z,25.18
2023-06-19T21:19:08.349Z,25.17
2023-06-19T21:21:36.089Z,25.14
2023-06-19T21:24:04.030Z,25.12
2023-06-19T21:26:33.261Z,25.10
2023-06-19T21:29:00.991Z,25.03
2023-06-19T21:31:29.004Z,25.05
2023-06-19T21:33:57.736Z,25.04
2023-06-19T21:36:25.500Z,25.01
2023-06-19T21:38:53.203Z,24.98
2023-06-19T21:41:20.970Z,24.95
2023-06-19T21:43:50.117Z,24.94
2023-06-19T21:46:17.926Z,24.92
2023-06-19T21:48:45.698Z,24.89
2023-06-19T21:51:13.420Z,24.86
2023-06-19T21:53:41.136Z,24.80
2023-06-19T21:56:08.800Z,24.67
2023-06-19T21:58:36.530Z,24.77
2023-06-19T22:01:05.710Z,24.76
2023-06-19T22:03:33.904Z,24.73
2023-06-19T22:06:01.791Z,24.70
2023-06-19T22:08:41.444Z,24.70
2023-06-19T22:11:10.646Z,24.66
2023-06-19T22:13:38.442Z,24.64
2023-06-19T22:16:09.048Z,24.63
2023-06-19T22:18:37.024Z,24.62
2023-06-19T22:21:04.900Z,24.60
2023-06-19T22:23:33.457Z,24.58
2023-06-19T22:26:01.202Z,24.54
2023-06-19T22:28:28.939Z,24.52
2023-06-19T22:30:56.709Z,24.49
2023-06-19T22:33:25.865Z,24.46
2023-06-19T22:35:53.893Z,24.44
2023-06-19T22:38:22.321Z,24.40
2023-06-19T22:40:50.042Z,24.37
2023-06-19T22:43:17.976Z,24.37
2023-06-19T22:45:45.701Z,24.36
2023-06-19T22:48:13.460Z,24.35
2023-06-19T22:50:42.613Z,24.32
2023-06-19T22:53:11.038Z,24.29
2023-06-19T22:55:38.908Z,24.30
2023-06-19T22:58:06.893Z,24.28
2023-06-19T23:00:35.464Z,24.25
2023-06-19T23:03:03.396Z,24.23
2023-06-19T23:05:31.261Z,24.22
2023-06-19T23:08:00.338Z,24.20
2023-06-19T23:10:28.128Z,24.19
2023-06-19T23:12:55.982Z,24.17
2023-06-19T23:15:24.219Z,24.17
2023-06-19T23:17:54.269Z,24.16
2023-06-19T23:20:22.361Z,24.17
2023-06-19T23:22:50.086Z,24.16
2023-06-19T23:25:19.250Z,24.14
2023-06-19T23:27:46.968Z,24.12
2023-06-19T23:30:15.015Z,24.10
2023-06-19T23:32:42.788Z,24.08
2023-06-19T23:35:10.848Z,24.04
2023-06-19T23:37:38.540Z,24.01
2023-06-19T23:40:08.961Z,23.97
2023-06-19T23:42:38.585Z,23.97
2023-06-19T23:45:06.931Z,23.98
2023-06-19T23:47:34.635Z,23.97
2023-06-19T23:50:02.332Z,23.98
2023-06-19T23:52:43.088Z,23.96
2023-06-19T23:55:11.753Z,23.95
2023-06-19T23:57:40.896Z,23.95
